Time;durP1;ratioP1;P1;durP2;ratioP2;P2;SDS_P1;SDS_P2;PMS_P1;PMS_P2;Temp;Humidity;BMP_temperature;BMP_pressure;BME280_temperature;BME280_humidity;BME280_pressure;Samples;Min_cycle;Max_cycle;Signal;HPM_P1;HPM_P2
2022/02/12 00:02:25;;;;;;;8.57;3.38;;;;;;;;;;5043703;28;20097;-69
2022/02/12 00:04:51;;;;;;;7.78;3.35;;;;;;;;;;5043157;28;20124;-71
2022/02/12 00:07:17;;;;;;;8.68;3.92;;;;;;;;;;5048259;28;20745;-69
2022/02/12 00:09:43;;;;;;;9.77;2.90;;;;;;;;;;5047751;28;20017;-69
2022/02/12 00:12:09;;;;;;;7.32;3.13;;;;;;;;;;5048686;28;20140;-69
2022/02/12 00:14:35;;;;;;;16.25;3.25;;;;;;;;;;5048484;28;20532;-69
2022/02/12 00:17:01;;;;;;;10.13;3.00;;;;;;;;;;5044780;28;20108;-69
2022/02/12 00:19:26;;;;;;;7.32;3.33;;;;;;;;;;5034081;28;20445;-69
2022/02/12 00:21:52;;;;;;;9.85;3.28;;;;;;;;;;5033776;28;20420;-69
2022/02/12 00:24:18;;;;;;;6.82;3.38;;;;;;;;;;5039488;28;20096;-69
2022/02/12 00:26:44;;;;;;;5.10;3.03;;;;;;;;;;5045662;28;20029;-69
2022/02/12 00:29:10;;;;;;;7.93;3.25;;;;;;;;;;5043597;28;20400;-70
2022/02/12 00:31:36;;;;;;;5.82;3.22;;;;;;;;;;5042069;28;20465;-70
2022/02/12 00:34:02;;;;;;;7.63;3.38;;;;;;;;;;5044752;28;20029;-70
2022/02/12 00:36:29;;;;;;;6.60;2.95;;;;;;;;;;5039072;28;20104;-70
2022/02/12 00:38:55;;;;;;;5.07;2.97;;;;;;;;;;5044123;28;20041;-71
2022/02/12 00:41:21;;;;;;;5.22;3.08;;;;;;;;;;5053629;28;20033;-70
2022/02/12 00:43:46;;;;;;;13.07;3.50;;;;;;;;;;5035890;28;20156;-70
2022/02/12 00:46:12;;;;;;;8.77;3.17;;;;;;;;;;5041983;28;20029;-71
2022/02/12 00:48:38;;;;;;;6.93;3.50;;;;;;;;;;5051539;28;20476;-70
2022/02/12 00:51:04;;;;;;;7.85;3.05;;;;;;;;;;5053556;28;20040;-70
2022/02/12 00:53:30;;;;;;;6.40;3.17;;;;;;;;;;5053210;28;20100;-70
2022/02/12 00:55:57;;;;;;;8.40;2.95;;;;;;;;;;5053343;28;20070;-69
2022/02/12 00:58:23;;;;;;;5.78;3.33;;;;;;;;;;5053194;28;20086;-70
2022/02/12 01:00:49;;;;;;;5.75;3.30;;;;;;;;;;5034924;28;20037;-71
2022/02/12 01:03:15;;;;;;;4.88;2.97;;;;;;;;;;5039611;28;20027;-69
2022/02/12 01:05:41;;;;;;;6.90;3.42;;;;;;;;;;5049250;28;20063;-70
2022/02/12 01:08:07;;;;;;;5.70;2.97;;;;;;;;;;5050078;28;20021;-70
2022/02/12 01:10:33;;;;;;;20.35;3.40;;;;;;;;;;5050696;28;20377;-69
2022/02/12 01:13:03;;;;;;;3.40;2.50;;;;;;;;;;5039843;28;20071;-69
2022/02/12 01:15:31;;;;;;;5.05;3.03;;;;;;;;;;5029738;28;20484;-69
2022/02/12 01:17:57;;;;;;;7.63;2.95;;;;;;;;;;5049102;28;20541;-69
2022/02/12 01:20:23;;;;;;;7.28;3.05;;;;;;;;;;5041282;28;20033;-69
2022/02/12 01:22:50;;;;;;;4.78;2.88;;;;;;;;;;5043627;28;20029;-69
2022/02/12 01:25:16;;;;;;;7.82;3.38;;;;;;;;;;5038929;28;20368;-69
2022/02/12 01:27:42;;;;;;;8.07;3.50;;;;;;;;;;5050224;28;20426;-70
2022/02/12 01:30:09;;;;;;;4.90;2.88;;;;;;;;;;5047102;28;20111;-70
2022/02/12 01:32:36;;;;;;;9.18;2.90;;;;;;;;;;5045646;28;20021;-69
2022/02/12 01:35:03;;;;;;;6.43;2.85;;;;;;;;;;5024953;28;20120;-70
2022/02/12 01:37:29;;;;;;;7.90;2.80;;;;;;;;;;5033092;28;20026;-69
2022/02/12 01:39:55;;;;;;;7.32;3.40;;;;;;;;;;5039464;28;20049;-68
2022/02/12 01:42:22;;;;;;;3.53;2.50;;;;;;;;;;5035827;28;20485;-68
2022/02/12 01:44:48;;;;;;;8.90;2.97;;;;;;;;;;5044568;28;20025;-68
2022/02/12 01:47:14;;;;;;;7.82;2.88;;;;;;;;;;5042201;28;20025;-67
2022/02/12 01:49:42;;;;;;;6.45;2.58;;;;;;;;;;5045861;28;20052;-69
2022/02/12 01:52:13;;;;;;;6.95;3.08;;;;;;;;;;5047908;28;20472;-70
2022/02/12 01:54:40;;;;;;;5.32;2.80;;;;;;;;;;5045543;28;20028;-68
2022/02/12 01:57:07;;;;;;;9.88;2.90;;;;;;;;;;5044514;28;20435;-69
2022/02/12 01:59:34;;;;;;;5.57;2.95;;;;;;;;;;5044163;28;20028;-68
2022/02/12 02:02:04;;;;;;;8.95;3.15;;;;;;;;;;5042292;28;20029;-69
2022/02/12 02:04:34;;;;;;;7.30;2.55;;;;;;;;;;5042918;28;20044;-70
2022/02/12 02:07:00;;;;;;;4.13;2.50;;;;;;;;;;5050772;28;20393;-70
2022/02/12 02:09:27;;;;;;;7.57;2.55;;;;;;;;;;5050927;28;20013;-70
2022/02/12 02:11:53;;;;;;;14.20;2.65;;;;;;;;;;5045226;28;20025;-70
2022/02/12 02:14:19;;;;;;;4.53;2.50;;;;;;;;;;5041478;28;20155;-69
2022/02/12 02:16:48;;;;;;;4.70;2.90;;;;;;;;;;5048474;28;20028;-70
2022/02/12 02:19:14;;;;;;;7.10;2.50;;;;;;;;;;5044342;28;20032;-70
2022/02/12 02:21:40;;;;;;;7.38;2.78;;;;;;;;;;5048229;28;20388;-71
2022/02/12 02:24:07;;;;;;;6.35;2.55;;;;;;;;;;5043965;28;20028;-69
2022/02/12 02:26:34;;;;;;;5.30;2.50;;;;;;;;;;5052731;28;20021;-70
2022/02/12 02:29:01;;;;;;;7.43;2.40;;;;;;;;;;5054557;28;20017;-68
2022/02/12 02:31:27;;;;;;;5.90;2.50;;;;;;;;;;5050204;28;20025;-70
2022/02/12 02:33:53;;;;;;;7.50;2.80;;;;;;;;;;5031485;28;20045;-68
2022/02/12 02:36:19;;;;;;;4.50;2.25;;;;;;;;;;5050612;28;20068;-70
2022/02/12 02:38:45;;;;;;;5.28;2.67;;;;;;;;;;5054978;28;20128;-70
2022/02/12 02:41:11;;;;;;;4.15;2.55;;;;;;;;;;5036987;28;20040;-71
2022/02/12 02:43:37;;;;;;;3.40;2.25;;;;;;;;;;5038859;28;20071;-69
2022/02/12 02:46:04;;;;;;;6.18;2.45;;;;;;;;;;5035076;28;20040;-69
2022/02/12 02:48:30;;;;;;;6.13;2.40;;;;;;;;;;5038213;28;20082;-70
2022/02/12 02:56:26;;;;;;;5.55;2.53;;;;;;;;;;5055851;28;20086;-70
2022/02/12 02:58:53;;;;;;;4.80;2.17;;;;;;;;;;5055396;28;20029;-71
2022/02/12 03:01:21;;;;;;;4.90;2.35;;;;;;;;;;5054760;28;20064;-72
2022/02/12 03:03:48;;;;;;;4.50;2.03;;;;;;;;;;5054905;28;20033;-69
2022/02/12 03:06:14;;;;;;;5.03;2.00;;;;;;;;;;5036009;28;20057;-68
2022/02/12 03:08:41;;;;;;;3.03;1.80;;;;;;;;;;5045626;28;20076;-71
2022/02/12 03:11:08;;;;;;;3.58;1.95;;;;;;;;;;5034756;28;20106;-70
2022/02/12 03:13:34;;;;;;;9.57;2.70;;;;;;;;;;5035450;28;20041;-70
2022/02/12 03:16:04;;;;;;;10.35;2.50;;;;;;;;;;5042954;28;20020;-70
2022/02/12 03:18:30;;;;;;;7.65;2.30;;;;;;;;;;5022901;28;20487;-71
2022/02/12 03:20:56;;;;;;;11.43;2.50;;;;;;;;;;5039098;28;20122;-68
2022/02/12 03:23:22;;;;;;;10.85;2.50;;;;;;;;;;5042994;28;20039;-71
2022/02/12 03:25:48;;;;;;;12.75;2.53;;;;;;;;;;5043473;28;20032;-68
2022/02/12 03:28:14;;;;;;;3.90;2.03;;;;;;;;;;5034820;28;20029;-70
2022/02/12 03:30:42;;;;;;;8.48;2.40;;;;;;;;;;5034889;28;20402;-69
2022/02/12 03:33:08;;;;;;;11.73;2.58;;;;;;;;;;5034777;28;20021;-69
2022/02/12 03:35:35;;;;;;;8.60;2.13;;;;;;;;;;5034877;28;20029;-71
2022/02/12 03:38:07;;;;;;;5.30;2.20;;;;;;;;;;5034727;28;20047;-71
2022/02/12 03:40:33;;;;;;;8.15;2.53;;;;;;;;;;5047608;28;20063;-71
2022/02/12 03:42:59;;;;;;;4.60;2.28;;;;;;;;;;5041363;28;20457;-72
2022/02/12 03:45:25;;;;;;;4.53;2.25;;;;;;;;;;5016844;28;20117;-71
2022/02/12 03:47:51;;;;;;;4.57;2.38;;;;;;;;;;5034320;28;20029;-71
2022/02/12 03:50:17;;;;;;;4.10;1.92;;;;;;;;;;5034946;28;20032;-72
2022/02/12 03:52:43;;;;;;;4.53;2.20;;;;;;;;;;5034194;28;20658;-74
2022/02/12 03:55:10;;;;;;;6.00;1.90;;;;;;;;;;5034731;28;20036;-72
2022/02/12 03:57:40;;;;;;;8.43;1.98;;;;;;;;;;5034088;28;20869;-72
2022/02/12 04:00:11;;;;;;;4.75;2.10;;;;;;;;;;5034235;28;20074;-72
2022/02/12 04:02:37;;;;;;;3.38;2.00;;;;;;;;;;5016183;28;20037;-72
2022/02/12 04:05:03;;;;;;;5.95;1.92;;;;;;;;;;5034105;28;20381;-70
2022/02/12 04:07:29;;;;;;;5.72;1.80;;;;;;;;;;5034054;28;20080;-73
2022/02/12 04:09:55;;;;;;;4.70;1.85;;;;;;;;;;5034425;28;20021;-69
2022/02/12 04:12:21;;;;;;;7.70;1.85;;;;;;;;;;5036048;28;20025;-68
2022/02/12 04:14:48;;;;;;;6.53;2.40;;;;;;;;;;5035784;28;20028;-70
2022/02/12 04:17:14;;;;;;;7.00;2.08;;;;;;;;;;5035085;28;20021;-68
2022/02/12 04:19:40;;;;;;;4.57;1.60;;;;;;;;;;5025452;28;20057;-68
2022/02/12 04:22:06;;;;;;;4.05;1.85;;;;;;;;;;5052539;28;20033;-68
2022/02/12 04:24:33;;;;;;;4.60;1.70;;;;;;;;;;5040962;28;20550;-68
2022/02/12 04:26:59;;;;;;;7.05;1.90;;;;;;;;;;5053161;28;20059;-70
2022/02/12 04:29:24;;;;;;;9.55;2.38;;;;;;;;;;5052415;28;20380;-68
2022/02/12 04:31:50;;;;;;;3.88;1.90;;;;;;;;;;5044777;28;20068;-69
2022/02/12 04:34:16;;;;;;;5.10;1.83;;;;;;;;;;5053226;28;20029;-69
2022/02/12 04:36:42;;;;;;;4.07;1.70;;;;;;;;;;5053220;28;20021;-68
2022/02/12 04:39:08;;;;;;;3.20;1.60;;;;;;;;;;5052983;28;20565;-68
2022/02/12 04:41:34;;;;;;;6.32;1.77;;;;;;;;;;5052580;28;20033;-69
2022/02/12 04:44:01;;;;;;;5.93;1.75;;;;;;;;;;5034220;28;20073;-68
2022/02/12 04:46:27;;;;;;;5.05;1.60;;;;;;;;;;5035016;28;20021;-68
2022/02/12 04:48:53;;;;;;;4.82;1.85;;;;;;;;;;5044888;28;20044;-71
2022/02/12 04:51:19;;;;;;;3.92;1.92;;;;;;;;;;5052808;28;20431;-72
2022/02/12 04:53:48;;;;;;;3.35;1.58;;;;;;;;;;5052946;28;20029;-69
2022/02/12 04:56:14;;;;;;;4.95;2.00;;;;;;;;;;5053017;28;20392;-68
2022/02/12 04:58:40;;;;;;;3.78;1.60;;;;;;;;;;5034985;28;20468;-69
2022/02/12 05:01:06;;;;;;;3.60;1.63;;;;;;;;;;5052333;28;20115;-68
2022/02/12 05:03:32;;;;;;;4.20;1.73;;;;;;;;;;5052752;28;20017;-68
2022/02/12 05:05:58;;;;;;;4.80;1.50;;;;;;;;;;5053043;28;20032;-68
2022/02/12 05:08:24;;;;;;;6.18;1.77;;;;;;;;;;5034773;28;20026;-68
2022/02/12 05:10:50;;;;;;;3.47;1.40;;;;;;;;;;5052720;28;20027;-69
2022/02/12 05:13:15;;;;;;;6.25;1.70;;;;;;;;;;5053059;28;20100;-71
2022/02/12 05:15:42;;;;;;;4.55;1.90;;;;;;;;;;5052842;28;20032;-70
2022/02/12 05:18:16;;;;;;;4.95;1.60;;;;;;;;;;5052948;28;20021;-70
2022/02/12 05:20:42;;;;;;;4.28;1.77;;;;;;;;;;5050730;28;20503;-68
2022/02/12 05:23:08;;;;;;;7.05;1.55;;;;;;;;;;5043821;28;20025;-70
2022/02/12 05:25:34;;;;;;;5.85;1.73;;;;;;;;;;5032389;28;20491;-70
2022/02/12 05:28:00;;;;;;;6.35;1.48;;;;;;;;;;5015002;28;20025;-71
2022/02/12 05:30:26;;;;;;;12.80;1.90;;;;;;;;;;5014842;28;20526;-71
2022/02/12 05:32:52;;;;;;;5.00;1.70;;;;;;;;;;5033613;28;20408;-68
2022/02/12 05:35:18;;;;;;;12.50;1.52;;;;;;;;;;5041384;28;20047;-68
2022/02/12 05:37:44;;;;;;;5.25;2.03;;;;;;;;;;5048012;28;20072;-70
2022/02/12 05:40:10;;;;;;;5.00;1.50;;;;;;;;;;5055766;28;20045;-69
2022/02/12 05:42:36;;;;;;;5.25;1.45;;;;;;;;;;5056475;28;20083;-69
2022/02/12 05:45:02;;;;;;;5.28;1.40;;;;;;;;;;5056254;28;20025;-68
2022/02/12 05:47:28;;;;;;;4.38;1.35;;;;;;;;;;5056772;28;20033;-69
2022/02/12 05:49:54;;;;;;;8.75;1.55;;;;;;;;;;5056584;28;20039;-68
2022/02/12 05:52:20;;;;;;;5.78;1.85;;;;;;;;;;5047702;28;20071;-68
2022/02/12 05:54:46;;;;;;;4.88;1.60;;;;;;;;;;5055095;28;20484;-68
2022/02/12 05:57:12;;;;;;;5.45;1.50;;;;;;;;;;5056635;28;20081;-69
2022/02/12 05:59:38;;;;;;;8.35;2.00;;;;;;;;;;5037928;28;20029;-68
2022/02/12 06:02:04;;;;;;;6.70;1.70;;;;;;;;;;5056083;28;20036;-68
2022/02/12 06:04:31;;;;;;;4.85;1.63;;;;;;;;;;5038430;28;20021;-68
2022/02/12 06:06:57;;;;;;;5.78;1.52;;;;;;;;;;5055727;28;20028;-68
2022/02/12 06:09:23;;;;;;;5.85;1.63;;;;;;;;;;5056022;28;20347;-68
2022/02/12 06:11:49;;;;;;;4.10;1.67;;;;;;;;;;5055865;28;20052;-68
2022/02/12 06:14:15;;;;;;;6.20;1.80;;;;;;;;;;5056090;28;20424;-68
2022/02/12 06:16:41;;;;;;;3.67;1.35;;;;;;;;;;5055712;28;20033;-69
2022/02/12 06:19:07;;;;;;;6.47;1.88;;;;;;;;;;5047674;28;20064;-68
2022/02/12 06:21:33;;;;;;;5.88;1.80;;;;;;;;;;5052650;28;20041;-68
2022/02/12 06:23:59;;;;;;;4.13;1.58;;;;;;;;;;5043130;28;20025;-68
2022/02/12 06:26:25;;;;;;;4.60;1.77;;;;;;;;;;5035034;28;20029;-70
2022/02/12 06:28:52;;;;;;;3.50;1.45;;;;;;;;;;5055573;28;20031;-69
2022/02/12 06:31:18;;;;;;;6.30;1.50;;;;;;;;;;5055341;28;20032;-68
2022/02/12 06:33:44;;;;;;;4.78;1.70;;;;;;;;;;5055687;28;20079;-69
2022/02/12 06:36:11;;;;;;;4.60;1.50;;;;;;;;;;5055351;28;20048;-69
2022/02/12 06:38:37;;;;;;;6.50;1.83;;;;;;;;;;5053186;28;20384;-70
2022/02/12 06:41:03;;;;;;;7.45;1.88;;;;;;;;;;5046601;28;20439;-67
2022/02/12 06:43:29;;;;;;;8.05;1.90;;;;;;;;;;5040429;28;20443;-68
2022/02/12 06:45:55;;;;;;;7.45;1.70;;;;;;;;;;5034950;28;20029;-67
2022/02/12 06:48:21;;;;;;;4.40;1.77;;;;;;;;;;5033921;28;20031;-70
2022/02/12 06:50:47;;;;;;;6.15;2.20;;;;;;;;;;5035226;28;20052;-70
2022/02/12 06:53:13;;;;;;;6.30;1.98;;;;;;;;;;5035140;28;20021;-70
2022/02/12 06:55:39;;;;;;;15.77;2.15;;;;;;;;;;5039536;28;20680;-69
2022/02/12 06:58:05;;;;;;;13.00;2.22;;;;;;;;;;5055215;28;20025;-69
2022/02/12 07:00:32;;;;;;;5.80;2.08;;;;;;;;;;5054966;28;20051;-72
2022/02/12 07:02:58;;;;;;;13.05;1.80;;;;;;;;;;5054493;28;20029;-69
2022/02/12 07:05:24;;;;;;;7.15;2.10;;;;;;;;;;5054107;28;20469;-70
2022/02/12 07:07:50;;;;;;;8.38;1.80;;;;;;;;;;5054012;28;20024;-71
2022/02/12 07:10:17;;;;;;;7.53;2.28;;;;;;;;;;5054046;28;20435;-71
2022/02/12 07:12:43;;;;;;;9.35;2.58;;;;;;;;;;5054755;28;20017;-73
2022/02/12 07:15:09;;;;;;;8.30;2.15;;;;;;;;;;5054720;28;20025;-70
2022/02/12 07:17:39;;;;;;;8.98;1.90;;;;;;;;;;5054593;28;20097;-70
2022/02/12 07:20:06;;;;;;;9.50;2.20;;;;;;;;;;5028549;28;20444;-70
2022/02/12 07:22:32;;;;;;;10.40;2.45;;;;;;;;;;5051499;28;20026;-70
2022/02/12 07:24:58;;;;;;;10.95;2.50;;;;;;;;;;5045168;28;20033;-71
2022/02/12 07:27:24;;;;;;;9.90;2.25;;;;;;;;;;5055269;28;20028;-72
2022/02/12 07:29:50;;;;;;;7.63;1.80;;;;;;;;;;5054111;28;20082;-70
2022/02/12 07:32:16;;;;;;;9.80;2.70;;;;;;;;;;5054374;28;20381;-70
2022/02/12 07:34:42;;;;;;;9.45;2.70;;;;;;;;;;5050344;28;20104;-70
2022/02/12 07:37:08;;;;;;;10.13;2.53;;;;;;;;;;5047309;28;20120;-71
2022/02/12 07:39:34;;;;;;;7.15;2.42;;;;;;;;;;5037148;28;20507;-70
2022/02/12 07:42:00;;;;;;;11.35;2.30;;;;;;;;;;5054461;28;20116;-72
2022/02/12 07:44:26;;;;;;;12.02;2.83;;;;;;;;;;5030597;28;20028;-73
2022/02/12 07:46:52;;;;;;;9.48;2.15;;;;;;;;;;5045814;28;20131;-73
2022/02/12 07:49:18;;;;;;;10.80;2.75;;;;;;;;;;5054913;28;20032;-72
2022/02/12 07:51:44;;;;;;;9.23;2.45;;;;;;;;;;5055586;28;20029;-73
2022/02/12 07:54:10;;;;;;;6.95;2.78;;;;;;;;;;5054326;28;20123;-73
2022/02/12 07:56:36;;;;;;;9.68;3.90;;;;;;;;;;5035449;28;20156;-73
2022/02/12 07:59:02;;;;;;;9.50;3.60;;;;;;;;;;5034665;28;20104;-72
2022/02/12 08:01:30;;;;;;;8.65;3.20;;;;;;;;;;5036028;28;20081;-72
2022/02/12 08:03:57;;;;;;;16.10;3.65;;;;;;;;;;5038641;28;20028;-72
2022/02/12 08:09:08;;;;;;;13.65;3.72;;;;;;;;;;5042804;28;20032;-71
2022/02/12 08:11:37;;;;;;;9.40;3.83;;;;;;;;;;5052057;28;20116;-71
2022/02/12 08:14:03;;;;;;;10.57;3.67;;;;;;;;;;5042610;28;20057;-71
2022/02/12 08:16:31;;;;;;;8.05;3.40;;;;;;;;;;5051291;28;20111;-74
2022/02/12 08:19:00;;;;;;;9.00;3.20;;;;;;;;;;5045284;28;20060;-70
2022/02/12 08:21:26;;;;;;;12.43;3.70;;;;;;;;;;5029975;28;20112;-74
2022/02/12 08:23:51;;;;;;;8.48;3.65;;;;;;;;;;5037555;28;20449;-72
2022/02/12 08:26:17;;;;;;;8.70;3.92;;;;;;;;;;5033791;28;20064;-72
2022/02/12 08:28:43;;;;;;;16.95;3.70;;;;;;;;;;5033661;28;20078;-69
2022/02/12 08:31:09;;;;;;;8.77;3.78;;;;;;;;;;5033488;28;20445;-74
2022/02/12 08:33:35;;;;;;;9.45;4.10;;;;;;;;;;5044609;28;20076;-73
2022/02/12 08:36:01;;;;;;;7.03;3.30;;;;;;;;;;5047525;28;20021;-73
2022/02/12 08:38:27;;;;;;;8.93;3.50;;;;;;;;;;5045041;28;20032;-72
2022/02/12 08:40:55;;;;;;;7.75;3.45;;;;;;;;;;5042106;28;20042;-73
2022/02/12 08:43:21;;;;;;;8.50;3.45;;;;;;;;;;5033772;28;20032;-74
2022/02/12 08:45:47;;;;;;;14.15;3.65;;;;;;;;;;5033611;28;20021;-74
2022/02/12 08:48:14;;;;;;;9.45;3.70;;;;;;;;;;5033410;28;20037;-75
2022/02/12 08:50:40;;;;;;;27.25;4.55;;;;;;;;;;5033139;28;20396;-74
2022/02/12 08:53:06;;;;;;;17.55;3.75;;;;;;;;;;5033602;28;20026;-73
2022/02/12 08:55:32;;;;;;;12.00;3.47;;;;;;;;;;5021307;28;20413;-72
2022/02/12 08:57:58;;;;;;;18.30;3.80;;;;;;;;;;5051614;28;20567;-69
2022/02/12 09:00:24;;;;;;;11.05;3.60;;;;;;;;;;5052740;28;20040;-71
2022/02/12 09:02:50;;;;;;;10.55;3.65;;;;;;;;;;5037212;28;20039;-71
2022/02/12 09:05:16;;;;;;;9.98;3.60;;;;;;;;;;5053573;28;20108;-70
2022/02/12 09:07:42;;;;;;;12.10;3.30;;;;;;;;;;5053450;28;20075;-73
2022/02/12 09:10:10;;;;;;;10.23;4.00;;;;;;;;;;5056886;28;20460;-71
2022/02/12 09:12:35;;;;;;;16.63;4.25;;;;;;;;;;5057250;28;20032;-73
2022/02/12 09:15:03;;;;;;;13.50;3.90;;;;;;;;;;5057107;28;20104;-75
2022/02/12 09:17:29;;;;;;;9.98;3.53;;;;;;;;;;5056634;28;20029;-72
2022/02/12 09:19:58;;;;;;;13.93;3.97;;;;;;;;;;5045644;28;20086;-71
2022/02/12 09:22:24;;;;;;;7.90;3.38;;;;;;;;;;5041783;28;20064;-69
2022/02/12 09:24:50;;;;;;;10.88;3.67;;;;;;;;;;5044984;28;20021;-71
2022/02/12 09:27:16;;;;;;;9.07;3.72;;;;;;;;;;5047610;28;20171;-70
2022/02/12 09:29:43;;;;;;;13.23;4.18;;;;;;;;;;5047923;28;20029;-73
2022/02/12 09:32:09;;;;;;;14.02;4.70;;;;;;;;;;5056803;28;20033;-74
2022/02/12 09:34:35;;;;;;;13.32;3.95;;;;;;;;;;5056929;28;20025;-74
2022/02/12 09:37:01;;;;;;;14.35;4.20;;;;;;;;;;5046447;28;20029;-70
2022/02/12 09:39:27;;;;;;;13.80;4.45;;;;;;;;;;5056568;28;20051;-71
2022/02/12 09:41:54;;;;;;;14.07;3.42;;;;;;;;;;5056712;28;20362;-70
2022/02/12 09:44:20;;;;;;;9.82;4.05;;;;;;;;;;5056805;28;20049;-71
2022/02/12 09:46:50;;;;;;;15.05;4.60;;;;;;;;;;5038909;28;20110;-71
2022/02/12 09:49:17;;;;;;;12.70;4.10;;;;;;;;;;5056531;28;20029;-71
2022/02/12 09:51:44;;;;;;;13.63;4.25;;;;;;;;;;5038462;28;20159;-70
2022/02/12 09:54:11;;;;;;;13.50;4.15;;;;;;;;;;5056344;28;20025;-68
2022/02/12 09:56:37;;;;;;;14.25;4.57;;;;;;;;;;5056046;28;20044;-67
2022/02/12 09:59:03;;;;;;;8.70;4.13;;;;;;;;;;5056117;28;20090;-68
2022/02/12 10:01:29;;;;;;;12.48;3.97;;;;;;;;;;5037740;28;20411;-73
2022/02/12 10:03:55;;;;;;;21.63;4.45;;;;;;;;;;5041194;28;20135;-71
2022/02/12 10:06:41;;;;;;;15.43;4.10;;;;;;;;;;5038110;28;20523;-73
2022/02/12 10:09:07;;;;;;;12.65;4.22;;;;;;;;;;5055389;28;20024;-70
2022/02/12 10:11:44;;;;;;;18.95;4.18;;;;;;;;;;5058839;28;20066;-70
2022/02/12 10:14:10;;;;;;;13.50;4.20;;;;;;;;;;5035582;28;20491;-69
2022/02/12 10:16:50;;;;;;;14.15;4.32;;;;;;;;;;5036031;28;20487;-72
2022/02/12 10:19:16;;;;;;;14.57;4.72;;;;;;;;;;5052658;28;20025;-72
2022/02/12 10:22:02;;;;;;;12.90;4.18;;;;;;;;;;5039630;28;20037;-72
2022/02/12 10:24:46;;;;;;;14.93;3.75;;;;;;;;;;5037917;28;20487;-70
2022/02/12 10:27:13;;;;;;;6.95;4.03;;;;;;;;;;5018996;28;20384;-71
2022/02/12 10:29:39;;;;;;;15.30;4.60;;;;;;;;;;5032810;28;20032;-72
2022/02/12 10:32:09;;;;;;;19.75;4.10;;;;;;;;;;5038471;28;20022;-71
2022/02/12 10:34:39;;;;;;;19.58;4.63;;;;;;;;;;5045894;28;20088;-74
2022/02/12 10:37:05;;;;;;;12.57;4.47;;;;;;;;;;5064945;28;20457;-69
2022/02/12 10:39:31;;;;;;;20.08;4.13;;;;;;;;;;5047587;28;20037;-69
2022/02/12 10:42:07;;;;;;;14.70;3.85;;;;;;;;;;5044896;28;20087;-69
2022/02/12 10:44:34;;;;;;;22.05;3.78;;;;;;;;;;5042490;28;20092;-68
2022/02/12 10:47:00;;;;;;;15.80;3.75;;;;;;;;;;5044505;28;20060;-68
2022/02/12 10:49:26;;;;;;;15.20;3.92;;;;;;;;;;5045136;28;20068;-69
2022/02/12 10:51:52;;;;;;;13.27;3.30;;;;;;;;;;5043688;28;20025;-71
2022/02/12 10:54:19;;;;;;;11.73;3.85;;;;;;;;;;5050272;28;20045;-67
2022/02/12 10:56:55;;;;;;;20.55;3.30;;;;;;;;;;5048126;28;20021;-68
2022/02/12 10:59:22;;;;;;;10.77;3.20;;;;;;;;;;5047272;28;20037;-68
2022/02/12 11:01:49;;;;;;;12.50;3.08;;;;;;;;;;5052751;28;20044;-68
2022/02/12 11:04:15;;;;;;;15.98;3.67;;;;;;;;;;5064229;28;20017;-66
2022/02/12 11:06:43;;;;;;;12.80;3.80;;;;;;;;;;5055576;28;20476;-68
2022/02/12 11:09:10;;;;;;;9.50;3.42;;;;;;;;;;5047094;28;20040;-68
2022/02/12 11:11:36;;;;;;;9.15;3.40;;;;;;;;;;5049947;28;20025;-68
2022/02/12 11:14:02;;;;;;;12.55;3.38;;;;;;;;;;5054833;28;20017;-69
2022/02/12 11:16:29;;;;;;;7.80;3.17;;;;;;;;;;5047352;28;20033;-68
2022/02/12 11:18:56;;;;;;;15.82;3.10;;;;;;;;;;5047981;28;20037;-68
2022/02/12 11:21:22;;;;;;;9.18;3.33;;;;;;;;;;5049098;28;20064;-67
2022/02/12 11:24:01;;;;;;;13.50;3.05;;;;;;;;;;5045220;28;20535;-67
2022/02/12 11:26:27;;;;;;;11.40;3.75;;;;;;;;;;5046110;28;20483;-68
2022/02/12 11:28:54;;;;;;;14.15;3.30;;;;;;;;;;5047485;28;20423;-68
2022/02/12 11:31:30;;;;;;;8.82;3.28;;;;;;;;;;5047466;28;20032;-70
2022/02/12 11:34:02;;;;;;;16.70;3.58;;;;;;;;;;5032823;28;20028;-71
2022/02/12 11:36:28;;;;;;;8.30;2.72;;;;;;;;;;5045778;28;20033;-69
2022/02/12 11:39:13;;;;;;;12.55;2.95;;;;;;;;;;5039058;28;20033;-71
2022/02/12 11:41:41;;;;;;;28.25;4.57;;;;;;;;;;5055236;28;20387;-70
2022/02/12 11:44:08;;;;;;;24.08;3.78;;;;;;;;;;5042892;28;20022;-69
2022/02/12 11:46:43;;;;;;;7.85;2.92;;;;;;;;;;5048739;28;20522;-71
2022/02/12 11:49:27;;;;;;;9.80;2.78;;;;;;;;;;5057326;28;20665;-71
2022/02/12 11:51:54;;;;;;;8.38;2.85;;;;;;;;;;5049916;28;20384;-70
2022/02/12 11:54:39;;;;;;;12.15;2.90;;;;;;;;;;5045857;28;20023;-69
2022/02/12 11:57:05;;;;;;;9.93;3.15;;;;;;;;;;5041136;28;20144;-69
2022/02/12 11:59:31;;;;;;;11.85;2.67;;;;;;;;;;5051797;28;20016;-71
2022/02/12 12:01:57;;;;;;;11.63;2.72;;;;;;;;;;5033984;28;20059;-67
2022/02/12 12:04:25;;;;;;;15.88;2.50;;;;;;;;;;5043081;28;20083;-70
2022/02/12 12:07:02;;;;;;;9.60;2.90;;;;;;;;;;5045049;28;20499;-70
2022/02/12 12:09:31;;;;;;;5.45;2.47;;;;;;;;;;5041680;28;20044;-73
2022/02/12 12:12:09;;;;;;;14.85;2.42;;;;;;;;;;5043310;28;20021;-74
2022/02/12 12:14:35;;;;;;;16.85;2.95;;;;;;;;;;5048107;28;20056;-73
2022/02/12 12:17:02;;;;;;;11.82;2.80;;;;;;;;;;5042057;28;20044;-73
2022/02/12 12:19:29;;;;;;;5.50;2.30;;;;;;;;;;5050758;28;20029;-71
2022/02/12 12:21:55;;;;;;;9.15;2.63;;;;;;;;;;5038294;28;20537;-74
2022/02/12 12:24:21;;;;;;;11.63;2.92;;;;;;;;;;5040821;28;20071;-70
2022/02/12 12:26:49;;;;;;;13.68;3.05;;;;;;;;;;5034101;28;20105;-70
2022/02/12 12:32:11;;;;;;;11.85;2.35;;;;;;;;;;5048581;28;20032;-71
2022/02/12 12:35:00;;;;;;;14.25;2.65;;;;;;;;;;5059068;28;20021;-71
2022/02/12 12:37:35;;;;;;;10.23;2.13;;;;;;;;;;5045538;28;20021;-73
2022/02/12 12:40:03;;;;;;;10.32;2.67;;;;;;;;;;5050283;28;20120;-73
2022/02/12 12:42:30;;;;;;;13.05;2.33;;;;;;;;;;5045359;28;20028;-74
2022/02/12 12:45:01;;;;;;;10.10;2.33;;;;;;;;;;5027700;28;20056;-77
2022/02/12 12:47:28;;;;;;;12.13;2.28;;;;;;;;;;5029476;28;20021;-72
2022/02/12 12:49:58;;;;;;;16.35;2.63;;;;;;;;;;5042999;28;20072;-73
2022/02/12 12:52:30;;;;;;;10.48;2.17;;;;;;;;;;5028433;28;20025;-72
2022/02/12 12:55:13;;;;;;;17.80;2.47;;;;;;;;;;5044063;28;20024;-69
2022/02/12 12:57:43;;;;;;;11.02;2.80;;;;;;;;;;5045715;28;20254;-71
2022/02/12 13:00:17;;;;;;;8.38;2.30;;;;;;;;;;5038447;28;20033;-69
2022/02/12 13:03:03;;;;;;;8.40;2.10;;;;;;;;;;5042610;28;20025;-71
2022/02/12 13:05:31;;;;;;;15.30;2.45;;;;;;;;;;5043917;28;20021;-70
2022/02/12 13:08:01;;;;;;;13.18;2.65;;;;;;;;;;5039106;28;20026;-70
2022/02/12 13:10:28;;;;;;;10.55;2.28;;;;;;;;;;5049845;28;20533;-70
2022/02/12 13:12:56;;;;;;;21.08;2.30;;;;;;;;;;5043698;28;20040;-70
2022/02/12 13:15:33;;;;;;;10.35;2.22;;;;;;;;;;5043000;28;20025;-70
2022/02/12 13:17:59;;;;;;;10.50;2.85;;;;;;;;;;5045346;28;20041;-75
2022/02/12 13:20:25;;;;;;;11.88;2.50;;;;;;;;;;5039940;28;20108;-75
2022/02/12 13:22:56;;;;;;;27.88;3.38;;;;;;;;;;5041040;28;20033;-68
2022/02/12 13:25:23;;;;;;;18.42;3.25;;;;;;;;;;5053557;28;20048;-71
2022/02/12 13:27:49;;;;;;;18.25;2.55;;;;;;;;;;5051331;28;20029;-76
2022/02/12 13:30:19;;;;;;;11.95;2.95;;;;;;;;;;5055300;28;20052;-77
2022/02/12 13:32:50;;;;;;;17.85;3.15;;;;;;;;;;5039635;28;20032;-76
2022/02/12 13:35:18;;;;;;;12.50;2.70;;;;;;;;;;5048636;28;20029;-70
2022/02/12 13:37:51;;;;;;;19.92;2.88;;;;;;;;;;5042977;28;20013;-71
2022/02/12 13:40:23;;;;;;;13.90;2.53;;;;;;;;;;5051544;28;20041;-70
2022/02/12 13:42:56;;;;;;;14.15;3.03;;;;;;;;;;5066717;28;20129;-70
2022/02/12 13:45:22;;;;;;;13.32;3.00;;;;;;;;;;5045601;28;20030;-70
2022/02/12 13:47:59;;;;;;;13.63;2.22;;;;;;;;;;5041373;28;20031;-69
2022/02/12 13:50:25;;;;;;;16.08;2.67;;;;;;;;;;5030582;28;20075;-70
2022/02/12 13:52:54;;;;;;;9.85;2.50;;;;;;;;;;5037381;28;20075;-69
2022/02/12 13:55:20;;;;;;;14.27;2.80;;;;;;;;;;5045761;28;20025;-69
2022/02/12 13:57:46;;;;;;;19.58;2.95;;;;;;;;;;5046653;28;20392;-69
2022/02/12 14:00:13;;;;;;;13.60;2.47;;;;;;;;;;5043850;28;20042;-69
2022/02/12 14:02:46;;;;;;;7.63;2.42;;;;;;;;;;5047671;28;20033;-67
2022/02/12 14:05:12;;;;;;;7.50;2.30;;;;;;;;;;5044217;28;20053;-69
2022/02/12 14:07:38;;;;;;;9.65;2.45;;;;;;;;;;5047205;28;20032;-70
2022/02/12 14:10:07;;;;;;;13.95;2.70;;;;;;;;;;5046504;28;20033;-69
2022/02/12 14:12:36;;;;;;;7.15;2.08;;;;;;;;;;5044933;28;20568;-67
2022/02/12 14:15:03;;;;;;;8.57;2.40;;;;;;;;;;5049950;28;20063;-70
2022/02/12 14:17:29;;;;;;;13.40;2.35;;;;;;;;;;5050463;28;20025;-68
2022/02/12 14:19:58;;;;;;;7.95;2.20;;;;;;;;;;5048284;28;20032;-69
2022/02/12 14:22:24;;;;;;;7.18;2.20;;;;;;;;;;5025745;28;20033;-69
2022/02/12 14:24:50;;;;;;;13.27;2.38;;;;;;;;;;5040774;28;20014;-69
2022/02/12 14:27:20;;;;;;;11.07;2.30;;;;;;;;;;5046153;28;20049;-69
2022/02/12 14:29:46;;;;;;;8.52;2.10;;;;;;;;;;5048567;28;20020;-69
2022/02/12 14:32:12;;;;;;;8.98;2.35;;;;;;;;;;5044666;28;20021;-69
2022/02/12 14:34:38;;;;;;;6.07;1.85;;;;;;;;;;5044707;28;20048;-69
2022/02/12 14:37:05;;;;;;;15.60;2.05;;;;;;;;;;5047094;28;20020;-69
2022/02/12 14:39:31;;;;;;;11.15;2.70;;;;;;;;;;5044000;28;20563;-70
2022/02/12 14:41:57;;;;;;;6.82;1.98;;;;;;;;;;5048399;28;20047;-69
2022/02/12 14:44:23;;;;;;;10.40;2.40;;;;;;;;;;5047573;28;20031;-69
2022/02/12 14:46:51;;;;;;;13.07;2.20;;;;;;;;;;5040645;28;20083;-69
2022/02/12 14:49:18;;;;;;;6.10;2.05;;;;;;;;;;5049264;28;20036;-69
2022/02/12 14:51:45;;;;;;;8.20;1.77;;;;;;;;;;5026398;28;20025;-69